sensor_id;sensor_type;location;lat;lon;timestamp;P1;durP1;ratioP1;P2;durP2;ratioP2
1837;SDS011;918;50.796;6.772;2023-06-26T00:01:40;7.57;;;7.07;;
1837;SDS011;918;50.796;6.772;2023-06-26T00:04:05;7.17;;;6.57;;
1837;SDS011;918;50.796;6.772;2023-06-26T00:06:31;6.70;;;6.30;;
1837;SDS011;918;50.796;6.772;2023-06-26T00:08:56;6.67;;;6.20;;
1837;SDS011;918;50.796;6.772;2023-06-26T00:11:23;7.00;;;6.50;;
1837;SDS011;918;50.796;6.772;2023-06-26T00:13:49;7.50;;;6.80;;
1837;SDS011;918;50.796;6.772;2023-06-26T00:16:14;7.13;;;6.43;;
1837;SDS011;918;50.796;6.772;2023-06-26T00:18:39;7.00;;;6.50;;
1837;SDS011;918;50.796;6.772;2023-06-26T00:21:04;7.30;;;6.70;;
1837;SDS011;918;50.796;6.772;2023-06-26T00:23:30;7.23;;;6.73;;
1837;SDS011;918;50.796;6.772;2023-06-26T00:26:01;7.53;;;6.93;;
1837;SDS011;918;50.796;6.772;2023-06-26T00:28:28;6.60;;;6.10;;
1837;SDS011;918;50.796;6.772;2023-06-26T00:30:53;7.23;;;6.73;;
1837;SDS011;918;50.796;6.772;2023-06-26T00:33:18;7.50;;;6.90;;
1837;SDS011;918;50.796;6.772;2023-06-26T00:35:43;7.70;;;7.10;;
1837;SDS011;918;50.796;6.772;2023-06-26T00:38:09;6.47;;;5.97;;
1837;SDS011;918;50.796;6.772;2023-06-26T00:40:34;6.67;;;6.27;;
1837;SDS011;918;50.796;6.772;2023-06-26T00:42:59;7.37;;;6.77;;
1837;SDS011;918;50.796;6.772;2023-06-26T00:45:24;7.13;;;6.63;;
1837;SDS011;918;50.796;6.772;2023-06-26T00:47:49;7.03;;;6.53;;
1837;SDS011;918;50.796;6.772;2023-06-26T00:50:15;7.10;;;6.60;;
1837;SDS011;918;50.796;6.772;2023-06-26T00:52:42;6.93;;;6.50;;
1837;SDS011;918;50.796;6.772;2023-06-26T00:55:08;7.30;;;6.80;;
1837;SDS011;918;50.796;6.772;2023-06-26T00:57:33;7.07;;;6.57;;
1837;SDS011;918;50.796;6.772;2023-06-26T00:59:59;6.90;;;6.40;;
1837;SDS011;918;50.796;6.772;2023-06-26T01:02:26;7.70;;;7.10;;
1837;SDS011;918;50.796;6.772;2023-06-26T01:04:53;7.47;;;6.97;;
1837;SDS011;918;50.796;6.772;2023-06-26T01:07:19;7.83;;;7.13;;
1837;SDS011;918;50.796;6.772;2023-06-26T01:09:48;7.00;;;6.50;;
1837;SDS011;918;50.796;6.772;2023-06-26T01:12:14;6.57;;;6.17;;
1837;SDS011;918;50.796;6.772;2023-06-26T01:14:39;6.60;;;6.20;;
1837;SDS011;918;50.796;6.772;2023-06-26T01:17:04;7.00;;;6.50;;
1837;SDS011;918;50.796;6.772;2023-06-26T01:19:31;6.60;;;6.10;;
1837;SDS011;918;50.796;6.772;2023-06-26T01:22:02;7.23;;;6.73;;
1837;SDS011;918;50.796;6.772;2023-06-26T01:24:39;6.60;;;6.10;;
1837;SDS011;918;50.796;6.772;2023-06-26T01:27:09;7.20;;;6.50;;
1837;SDS011;918;50.796;6.772;2023-06-26T01:29:35;7.10;;;6.60;;
1837;SDS011;918;50.796;6.772;2023-06-26T01:32:01;7.90;;;7.20;;
1837;SDS011;918;50.796;6.772;2023-06-26T01:34:26;7.90;;;7.30;;
1837;SDS011;918;50.796;6.772;2023-06-26T01:36:52;7.43;;;6.83;;
1837;SDS011;918;50.796;6.772;2023-06-26T01:39:18;7.90;;;7.37;;
1837;SDS011;918;50.796;6.772;2023-06-26T01:41:44;7.70;;;7.00;;
1837;SDS011;918;50.796;6.772;2023-06-26T01:44:11;7.77;;;7.03;;
1837;SDS011;918;50.796;6.772;2023-06-26T01:46:40;7.40;;;6.90;;
1837;SDS011;918;50.796;6.772;2023-06-26T01:51:51;7.30;;;6.70;;
1837;SDS011;918;50.796;6.772;2023-06-26T01:54:21;7.23;;;6.73;;
1837;SDS011;918;50.796;6.772;2023-06-26T01:56:49;7.50;;;7.00;;
1837;SDS011;918;50.796;6.772;2023-06-26T01:59:14;7.10;;;6.53;;
1837;SDS011;918;50.796;6.772;2023-06-26T02:01:40;7.87;;;7.33;;
1837;SDS011;918;50.796;6.772;2023-06-26T02:04:05;6.87;;;6.37;;
1837;SDS011;918;50.796;6.772;2023-06-26T02:06:31;7.43;;;6.73;;
1837;SDS011;918;50.796;6.772;2023-06-26T02:08:56;7.37;;;6.87;;
1837;SDS011;918;50.796;6.772;2023-06-26T02:11:21;7.23;;;6.63;;
1837;SDS011;918;50.796;6.772;2023-06-26T02:13:47;8.20;;;7.60;;
1837;SDS011;918;50.796;6.772;2023-06-26T02:16:12;7.33;;;6.73;;
1837;SDS011;918;50.796;6.772;2023-06-26T02:18:38;6.83;;;6.37;;
1837;SDS011;918;50.796;6.772;2023-06-26T02:21:03;7.90;;;7.40;;
1837;SDS011;918;50.796;6.772;2023-06-26T02:23:28;7.57;;;6.97;;
1837;SDS011;918;50.796;6.772;2023-06-26T02:25:54;7.90;;;7.30;;
1837;SDS011;918;50.796;6.772;2023-06-26T02:28:19;7.00;;;6.50;;
1837;SDS011;918;50.796;6.772;2023-06-26T02:30:44;7.40;;;6.70;;
1837;SDS011;918;50.796;6.772;2023-06-26T02:33:09;7.23;;;6.73;;
1837;SDS011;918;50.796;6.772;2023-06-26T02:35:35;6.70;;;6.20;;
1837;SDS011;918;50.796;6.772;2023-06-26T02:38:00;7.83;;;7.13;;
1837;SDS011;918;50.796;6.772;2023-06-26T02:40:25;7.47;;;6.87;;
1837;SDS011;918;50.796;6.772;2023-06-26T02:42:50;7.43;;;6.83;;
1837;SDS011;918;50.796;6.772;2023-06-26T02:45:16;7.00;;;6.40;;
1837;SDS011;918;50.796;6.772;2023-06-26T02:47:41;7.20;;;6.70;;
1837;SDS011;918;50.796;6.772;2023-06-26T02:50:06;7.00;;;6.50;;
1837;SDS011;918;50.796;6.772;2023-06-26T02:52:32;6.87;;;6.37;;
1837;SDS011;918;50.796;6.772;2023-06-26T02:54:57;7.90;;;7.30;;
1837;SDS011;918;50.796;6.772;2023-06-26T02:57:22;6.63;;;6.13;;
1837;SDS011;918;50.796;6.772;2023-06-26T02:59:48;7.60;;;7.00;;
1837;SDS011;918;50.796;6.772;2023-06-26T03:02:13;7.27;;;6.67;;
1837;SDS011;918;50.796;6.772;2023-06-26T03:04:38;7.30;;;6.70;;
1837;SDS011;918;50.796;6.772;2023-06-26T03:07:03;7.20;;;6.60;;
1837;SDS011;918;50.796;6.772;2023-06-26T03:09:29;7.50;;;7.00;;
1837;SDS011;918;50.796;6.772;2023-06-26T03:11:54;7.33;;;6.70;;
1837;SDS011;918;50.796;6.772;2023-06-26T03:14:20;7.03;;;6.53;;
1837;SDS011;918;50.796;6.772;2023-06-26T03:16:46;7.03;;;6.43;;
1837;SDS011;918;50.796;6.772;2023-06-26T03:19:11;7.57;;;6.97;;
1837;SDS011;918;50.796;6.772;2023-06-26T03:21:36;7.67;;;7.10;;
1837;SDS011;918;50.796;6.772;2023-06-26T03:24:01;8.33;;;7.73;;
1837;SDS011;918;50.796;6.772;2023-06-26T03:26:27;7.40;;;6.80;;
1837;SDS011;918;50.796;6.772;2023-06-26T03:28:53;7.90;;;7.30;;
1837;SDS011;918;50.796;6.772;2023-06-26T03:31:19;7.40;;;6.90;;
1837;SDS011;918;50.796;6.772;2023-06-26T03:33:45;8.03;;;7.33;;
1837;SDS011;918;50.796;6.772;2023-06-26T03:36:10;7.70;;;7.13;;
1837;SDS011;918;50.796;6.772;2023-06-26T03:38:35;7.17;;;6.67;;
1837;SDS011;918;50.796;6.772;2023-06-26T03:41:01;7.70;;;6.93;;
1837;SDS011;918;50.796;6.772;2023-06-26T03:43:27;8.40;;;7.77;;
1837;SDS011;918;50.796;6.772;2023-06-26T03:45:52;8.13;;;7.40;;
1837;SDS011;918;50.796;6.772;2023-06-26T03:48:17;7.77;;;7.23;;
1837;SDS011;918;50.796;6.772;2023-06-26T03:50:42;8.30;;;7.67;;
1837;SDS011;918;50.796;6.772;2023-06-26T03:53:08;8.37;;;7.60;;
1837;SDS011;918;50.796;6.772;2023-06-26T03:55:33;7.90;;;7.30;;
1837;SDS011;918;50.796;6.772;2023-06-26T03:57:59;7.83;;;7.23;;
1837;SDS011;918;50.796;6.772;2023-06-26T04:00:24;7.53;;;6.93;;
1837;SDS011;918;50.796;6.772;2023-06-26T04:02:49;7.90;;;7.30;;
1837;SDS011;918;50.796;6.772;2023-06-26T04:05:16;9.03;;;8.33;;
1837;SDS011;918;50.796;6.772;2023-06-26T04:07:42;10.27;;;8.20;;
1837;SDS011;918;50.796;6.772;2023-06-26T04:10:07;9.57;;;8.00;;
1837;SDS011;918;50.796;6.772;2023-06-26T04:12:33;7.93;;;6.60;;
1837;SDS011;918;50.796;6.772;2023-06-26T04:14:58;11.50;;;8.40;;
1837;SDS011;918;50.796;6.772;2023-06-26T04:17:23;8.10;;;7.50;;
1837;SDS011;918;50.796;6.772;2023-06-26T04:19:48;8.53;;;7.67;;
1837;SDS011;918;50.796;6.772;2023-06-26T04:22:14;15.97;;;9.20;;
1837;SDS011;918;50.796;6.772;2023-06-26T04:24:39;33.70;;;12.50;;
1837;SDS011;918;50.796;6.772;2023-06-26T04:27:04;25.80;;;13.73;;
1837;SDS011;918;50.796;6.772;2023-06-26T04:29:30;35.40;;;14.23;;
1837;SDS011;918;50.796;6.772;2023-06-26T04:31:56;30.13;;;13.03;;
1837;SDS011;918;50.796;6.772;2023-06-26T04:34:26;27.70;;;11.53;;
1837;SDS011;918;50.796;6.772;2023-06-26T04:36:52;13.63;;;8.63;;
1837;SDS011;918;50.796;6.772;2023-06-26T04:39:17;7.23;;;6.80;;
1837;SDS011;918;50.796;6.772;2023-06-26T04:41:44;6.83;;;6.23;;
1837;SDS011;918;50.796;6.772;2023-06-26T04:44:09;7.53;;;6.83;;
1837;SDS011;918;50.796;6.772;2023-06-26T04:46:35;6.23;;;5.73;;
1837;SDS011;918;50.796;6.772;2023-06-26T04:49:01;6.63;;;6.17;;
1837;SDS011;918;50.796;6.772;2023-06-26T04:51:28;6.50;;;6.00;;
1837;SDS011;918;50.796;6.772;2023-06-26T04:53:53;6.57;;;6.07;;
1837;SDS011;918;50.796;6.772;2023-06-26T04:56:19;6.33;;;5.90;;
1837;SDS011;918;50.796;6.772;2023-06-26T04:58:44;6.00;;;5.50;;
1837;SDS011;918;50.796;6.772;2023-06-26T05:01:09;5.77;;;4.97;;
1837;SDS011;918;50.796;6.772;2023-06-26T05:03:35;5.50;;;5.00;;
1837;SDS011;918;50.796;6.772;2023-06-26T05:06:01;5.97;;;5.57;;
1837;SDS011;918;50.796;6.772;2023-06-26T05:08:27;4.80;;;4.40;;
1837;SDS011;918;50.796;6.772;2023-06-26T05:10:52;5.30;;;4.80;;
1837;SDS011;918;50.796;6.772;2023-06-26T05:13:18;5.50;;;5.00;;
1837;SDS011;918;50.796;6.772;2023-06-26T05:15:44;9.63;;;5.00;;
1837;SDS011;918;50.796;6.772;2023-06-26T05:18:10;5.27;;;4.87;;
1837;SDS011;918;50.796;6.772;2023-06-26T05:20:36;5.77;;;5.23;;
1837;SDS011;918;50.796;6.772;2023-06-26T05:23:01;5.00;;;4.60;;
1837;SDS011;918;50.796;6.772;2023-06-26T05:25:28;5.50;;;5.10;;
1837;SDS011;918;50.796;6.772;2023-06-26T05:27:54;5.13;;;4.63;;
1837;SDS011;918;50.796;6.772;2023-06-26T05:30:20;5.77;;;5.17;;
1837;SDS011;918;50.796;6.772;2023-06-26T05:32:46;5.00;;;4.40;;
1837;SDS011;918;50.796;6.772;2023-06-26T05:35:12;4.70;;;4.37;;
1837;SDS011;918;50.796;6.772;2023-06-26T05:37:38;5.60;;;5.13;;
1837;SDS011;918;50.796;6.772;2023-06-26T05:40:03;5.20;;;4.80;;
1837;SDS011;918;50.796;6.772;2023-06-26T05:42:30;5.20;;;4.70;;
1837;SDS011;918;50.796;6.772;2023-06-26T05:44:55;5.27;;;4.87;;
1837;SDS011;918;50.796;6.772;2023-06-26T05:47:21;5.77;;;4.87;;
1837;SDS011;918;50.796;6.772;2023-06-26T05:49:46;4.87;;;4.47;;
1837;SDS011;918;50.796;6.772;2023-06-26T05:52:12;4.77;;;4.37;;
1837;SDS011;918;50.796;6.772;2023-06-26T05:54:37;4.70;;;4.20;;
1837;SDS011;918;50.796;6.772;2023-06-26T05:57:03;4.73;;;4.33;;
1837;SDS011;918;50.796;6.772;2023-06-26T05:59:30;4.23;;;3.57;;
1837;SDS011;918;50.796;6.772;2023-06-26T06:01:56;4.63;;;4.23;;
1837;SDS011;918;50.796;6.772;2023-06-26T06:04:21;5.73;;;3.63;;
1837;SDS011;918;50.796;6.772;2023-06-26T06:06:47;4.30;;;3.90;;
1837;SDS011;918;50.796;6.772;2023-06-26T06:09:12;4.40;;;4.10;;
1837;SDS011;918;50.796;6.772;2023-06-26T06:11:37;4.77;;;4.37;;
1837;SDS011;918;50.796;6.772;2023-06-26T06:14:02;6.40;;;4.00;;
1837;SDS011;918;50.796;6.772;2023-06-26T06:16:28;4.87;;;4.47;;
1837;SDS011;918;50.796;6.772;2023-06-26T06:18:54;4.53;;;4.17;;
1837;SDS011;918;50.796;6.772;2023-06-26T06:21:19;4.30;;;4.00;;
1837;SDS011;918;50.796;6.772;2023-06-26T06:23:45;4.53;;;4.13;;
1837;SDS011;918;50.796;6.772;2023-06-26T06:26:10;3.97;;;3.67;;
1837;SDS011;918;50.796;6.772;2023-06-26T06:28:36;5.53;;;4.47;;
1837;SDS011;918;50.796;6.772;2023-06-26T06:31:01;4.37;;;3.97;;
1837;SDS011;918;50.796;6.772;2023-06-26T06:33:26;3.90;;;3.60;;
1837;SDS011;918;50.796;6.772;2023-06-26T06:35:51;4.53;;;4.13;;
1837;SDS011;918;50.796;6.772;2023-06-26T06:38:16;4.67;;;4.30;;
1837;SDS011;918;50.796;6.772;2023-06-26T06:40:42;5.00;;;4.50;;
1837;SDS011;918;50.796;6.772;2023-06-26T06:43:07;7.53;;;4.80;;
1837;SDS011;918;50.796;6.772;2023-06-26T06:45:32;7.93;;;4.50;;
1837;SDS011;918;50.796;6.772;2023-06-26T06:47:57;4.73;;;4.37;;
1837;SDS011;918;50.796;6.772;2023-06-26T06:50:23;4.97;;;4.07;;
1837;SDS011;918;50.796;6.772;2023-06-26T06:52:48;5.00;;;4.60;;
1837;SDS011;918;50.796;6.772;2023-06-26T06:55:13;6.07;;;4.40;;
1837;SDS011;918;50.796;6.772;2023-06-26T06:57:39;4.47;;;4.07;;
1837;SDS011;918;50.796;6.772;2023-06-26T07:00:05;4.10;;;3.73;;
1837;SDS011;918;50.796;6.772;2023-06-26T07:02:33;4.93;;;4.20;;
1837;SDS011;918;50.796;6.772;2023-06-26T07:05:00;5.23;;;3.50;;
1837;SDS011;918;50.796;6.772;2023-06-26T07:07:27;4.73;;;4.20;;
1837;SDS011;918;50.796;6.772;2023-06-26T07:09:54;4.70;;;4.33;;
1837;SDS011;918;50.796;6.772;2023-06-26T07:12:19;5.57;;;4.10;;
1837;SDS011;918;50.796;6.772;2023-06-26T07:14:44;4.17;;;3.77;;
1837;SDS011;918;50.796;6.772;2023-06-26T07:17:09;4.37;;;3.97;;
1837;SDS011;918;50.796;6.772;2023-06-26T07:19:34;5.83;;;4.33;;
1837;SDS011;918;50.796;6.772;2023-06-26T07:22:00;4.73;;;4.33;;
1837;SDS011;918;50.796;6.772;2023-06-26T07:24:25;5.13;;;4.63;;
1837;SDS011;918;50.796;6.772;2023-06-26T07:26:50;6.77;;;4.70;;
1837;SDS011;918;50.796;6.772;2023-06-26T07:29:15;5.07;;;4.67;;
1837;SDS011;918;50.796;6.772;2023-06-26T07:31:41;4.97;;;4.47;;
1837;SDS011;918;50.796;6.772;2023-06-26T07:34:06;6.13;;;5.53;;
1837;SDS011;918;50.796;6.772;2023-06-26T07:36:32;6.07;;;4.97;;
1837;SDS011;918;50.796;6.772;2023-06-26T07:38:57;5.00;;;4.47;;
1837;SDS011;918;50.796;6.772;2023-06-26T07:41:22;6.57;;;6.07;;
1837;SDS011;918;50.796;6.772;2023-06-26T07:43:47;5.30;;;4.90;;
1837;SDS011;918;50.796;6.772;2023-06-26T07:46:13;4.70;;;4.40;;
1837;SDS011;918;50.796;6.772;2023-06-26T07:48:38;5.80;;;5.00;;
1837;SDS011;918;50.796;6.772;2023-06-26T07:51:04;4.20;;;3.90;;
1837;SDS011;918;50.796;6.772;2023-06-26T07:53:29;4.60;;;4.20;;
1837;SDS011;918;50.796;6.772;2023-06-26T07:55:54;5.53;;;3.90;;
1837;SDS011;918;50.796;6.772;2023-06-26T07:58:19;7.30;;;4.10;;
1837;SDS011;918;50.796;6.772;2023-06-26T08:00:44;5.13;;;3.90;;
1837;SDS011;918;50.796;6.772;2023-06-26T08:03:10;6.20;;;4.60;;
1837;SDS011;918;50.796;6.772;2023-06-26T08:05:35;4.83;;;3.50;;
1837;SDS011;918;50.796;6.772;2023-06-26T08:08:00;5.67;;;3.70;;
1837;SDS011;918;50.796;6.772;2023-06-26T08:10:27;4.63;;;3.77;;
1837;SDS011;918;50.796;6.772;2023-06-26T08:12:52;4.20;;;3.80;;
1837;SDS011;918;50.796;6.772;2023-06-26T08:15:18;4.50;;;3.43;;
1837;SDS011;918;50.796;6.772;2023-06-26T08:17:43;4.43;;;3.77;;
1837;SDS011;918;50.796;6.772;2023-06-26T08:20:08;4.23;;;3.83;;
1837;SDS011;918;50.796;6.772;2023-06-26T08:22:34;3.90;;;3.27;;
1837;SDS011;918;50.796;6.772;2023-06-26T08:25:00;4.63;;;3.80;;
1837;SDS011;918;50.796;6.772;2023-06-26T08:27:25;5.40;;;3.40;;
1837;SDS011;918;50.796;6.772;2023-06-26T08:29:50;3.77;;;3.47;;
1837;SDS011;918;50.796;6.772;2023-06-26T08:32:16;3.20;;;2.77;;
1837;SDS011;918;50.796;6.772;2023-06-26T08:34:41;3.30;;;2.93;;
1837;SDS011;918;50.796;6.772;2023-06-26T08:37:06;5.00;;;3.47;;
1837;SDS011;918;50.796;6.772;2023-06-26T08:39:34;5.20;;;3.63;;
1837;SDS011;918;50.796;6.772;2023-06-26T08:41:59;3.87;;;3.50;;
1837;SDS011;918;50.796;6.772;2023-06-26T08:44:24;5.80;;;3.53;;
1837;SDS011;918;50.796;6.772;2023-06-26T08:46:50;4.87;;;3.90;;
1837;SDS011;918;50.796;6.772;2023-06-26T08:49:27;5.43;;;3.50;;
1837;SDS011;918;50.796;6.772;2023-06-26T08:54:52;4.23;;;3.40;;
1837;SDS011;918;50.796;6.772;2023-06-26T08:57:20;4.63;;;3.43;;
1837;SDS011;918;50.796;6.772;2023-06-26T08:59:48;4.47;;;3.30;;
1837;SDS011;918;50.796;6.772;2023-06-26T09:02:13;3.73;;;3.37;;
1837;SDS011;918;50.796;6.772;2023-06-26T09:04:39;4.50;;;3.27;;
1837;SDS011;918;50.796;6.772;2023-06-26T09:07:05;4.43;;;3.40;;
1837;SDS011;918;50.796;6.772;2023-06-26T09:09:30;3.37;;;3.07;;
1837;SDS011;918;50.796;6.772;2023-06-26T09:11:56;4.33;;;3.60;;
1837;SDS011;918;50.796;6.772;2023-06-26T09:14:21;4.20;;;2.80;;
1837;SDS011;918;50.796;6.772;2023-06-26T09:16:46;4.73;;;3.40;;
1837;SDS011;918;50.796;6.772;2023-06-26T09:19:12;3.80;;;2.93;;
1837;SDS011;918;50.796;6.772;2023-06-26T09:21:38;3.67;;;2.73;;
1837;SDS011;918;50.796;6.772;2023-06-26T09:24:04;3.13;;;2.83;;
1837;SDS011;918;50.796;6.772;2023-06-26T09:26:31;4.30;;;2.57;;
1837;SDS011;918;50.796;6.772;2023-06-26T09:28:57;4.30;;;2.40;;
1837;SDS011;918;50.796;6.772;2023-06-26T09:31:23;2.47;;;2.27;;
1837;SDS011;918;50.796;6.772;2023-06-26T09:33:49;3.00;;;2.33;;
1837;SDS011;918;50.796;6.772;2023-06-26T09:36:20;4.00;;;2.60;;
1837;SDS011;918;50.796;6.772;2023-06-26T09:38:46;3.47;;;2.43;;
1837;SDS011;918;50.796;6.772;2023-06-26T09:41:15;5.67;;;3.37;;
1837;SDS011;918;50.796;6.772;2023-06-26T09:43:48;4.03;;;2.70;;
1837;SDS011;918;50.796;6.772;2023-06-26T09:46:23;5.20;;;3.00;;
1837;SDS011;918;50.796;6.772;2023-06-26T09:49:02;3.10;;;2.80;;
1837;SDS011;918;50.796;6.772;2023-06-26T09:51:33;4.10;;;2.23;;
1837;SDS011;918;50.796;6.772;2023-06-26T09:53:59;5.90;;;2.70;;
1837;SDS011;918;50.796;6.772;2023-06-26T09:56:24;3.53;;;3.23;;
1837;SDS011;918;50.796;6.772;2023-06-26T09:58:50;3.37;;;2.63;;
1837;SDS011;918;50.796;6.772;2023-06-26T10:01:16;3.43;;;2.60;;
1837;SDS011;918;50.796;6.772;2023-06-26T10:03:42;3.00;;;2.80;;
1837;SDS011;918;50.796;6.772;2023-06-26T10:06:08;4.90;;;2.60;;
1837;SDS011;918;50.796;6.772;2023-06-26T10:08:34;4.93;;;2.53;;
1837;SDS011;918;50.796;6.772;2023-06-26T10:11:01;4.27;;;2.33;;
1837;SDS011;918;50.796;6.772;2023-06-26T10:13:31;3.00;;;2.50;;
1837;SDS011;918;50.796;6.772;2023-06-26T10:16:00;3.87;;;2.37;;
1837;SDS011;918;50.796;6.772;2023-06-26T10:18:25;4.03;;;2.70;;
1837;SDS011;918;50.796;6.772;2023-06-26T10:20:51;3.90;;;2.20;;
1837;SDS011;918;50.796;6.772;2023-06-26T10:23:18;5.17;;;2.30;;
1837;SDS011;918;50.796;6.772;2023-06-26T10:25:44;3.07;;;2.47;;
1837;SDS011;918;50.796;6.772;2023-06-26T10:28:11;2.83;;;2.30;;
1837;SDS011;918;50.796;6.772;2023-06-26T10:30:37;3.07;;;2.47;;
1837;SDS011;918;50.796;6.772;2023-06-26T10:33:04;2.33;;;2.00;;
1837;SDS011;918;50.796;6.772;2023-06-26T10:35:30;2.80;;;2.27;;
1837;SDS011;918;50.796;6.772;2023-06-26T10:38:00;3.80;;;2.20;;
1837;SDS011;918;50.796;6.772;2023-06-26T10:40:28;3.47;;;2.40;;
1837;SDS011;918;50.796;6.772;2023-06-26T10:43:06;5.90;;;2.47;;
1837;SDS011;918;50.796;6.772;2023-06-26T10:45:33;3.00;;;2.53;;
1837;SDS011;918;50.796;6.772;2023-06-26T10:47:59;2.00;;;1.80;;
1837;SDS011;918;50.796;6.772;2023-06-26T10:53:09;5.90;;;2.50;;
1837;SDS011;918;50.796;6.772;2023-06-26T10:55:56;5.73;;;2.30;;
1837;SDS011;918;50.796;6.772;2023-06-26T10:58:33;3.63;;;2.20;;
1837;SDS011;918;50.796;6.772;2023-06-26T11:03:40;3.83;;;1.60;;
1837;SDS011;918;50.796;6.772;2023-06-26T11:06:20;3.60;;;3.30;;
1837;SDS011;918;50.796;6.772;2023-06-26T11:08:47;3.53;;;2.20;;
1837;SDS011;918;50.796;6.772;2023-06-26T11:11:17;3.80;;;2.10;;
1837;SDS011;918;50.796;6.772;2023-06-26T11:13:44;3.10;;;2.50;;
1837;SDS011;918;50.796;6.772;2023-06-26T11:16:11;3.33;;;2.10;;
1837;SDS011;918;50.796;6.772;2023-06-26T11:18:36;6.30;;;2.47;;
1837;SDS011;918;50.796;6.772;2023-06-26T11:21:05;4.03;;;2.30;;
1837;SDS011;918;50.796;6.772;2023-06-26T11:23:35;2.50;;;2.30;;
1837;SDS011;918;50.796;6.772;2023-06-26T11:26:17;2.50;;;1.67;;
1837;SDS011;918;50.796;6.772;2023-06-26T11:28:56;2.20;;;2.00;;
1837;SDS011;918;50.796;6.772;2023-06-26T11:33:50;3.37;;;2.13;;
1837;SDS011;918;50.796;6.772;2023-06-26T11:36:16;2.87;;;1.60;;
1837;SDS011;918;50.796;6.772;2023-06-26T11:38:41;2.50;;;1.70;;
1837;SDS011;918;50.796;6.772;2023-06-26T11:41:06;2.40;;;1.70;;
1837;SDS011;918;50.796;6.772;2023-06-26T11:43:33;4.97;;;1.80;;
1837;SDS011;918;50.796;6.772;2023-06-26T11:45:59;1.83;;;1.73;;
1837;SDS011;918;50.796;6.772;2023-06-26T11:48:24;2.50;;;2.00;;
1837;SDS011;918;50.796;6.772;2023-06-26T11:50:50;3.50;;;1.70;;
1837;SDS011;918;50.796;6.772;2023-06-26T11:53:19;2.37;;;2.17;;
1837;SDS011;918;50.796;6.772;2023-06-26T11:55:44;2.00;;;1.80;;
1837;SDS011;918;50.796;6.772;2023-06-26T11:58:09;1.90;;;1.53;;
1837;SDS011;918;50.796;6.772;2023-06-26T12:00:34;1.73;;;1.63;;
1837;SDS011;918;50.796;6.772;2023-06-26T12:03:00;2.53;;;2.33;;
1837;SDS011;918;50.796;6.772;2023-06-26T12:05:26;2.53;;;1.63;;
1837;SDS011;918;50.796;6.772;2023-06-26T12:07:51;4.37;;;2.40;;
1837;SDS011;918;50.796;6.772;2023-06-26T12:10:16;2.70;;;1.97;;
1837;SDS011;918;50.796;6.772;2023-06-26T12:12:42;2.57;;;1.87;;
1837;SDS011;918;50.796;6.772;2023-06-26T12:15:08;5.50;;;2.40;;
1837;SDS011;918;50.796;6.772;2023-06-26T12:17:37;2.43;;;2.10;;
1837;SDS011;918;50.796;6.772;2023-06-26T12:20:04;4.53;;;2.40;;
1837;SDS011;918;50.796;6.772;2023-06-26T12:22:33;4.03;;;1.80;;
1837;SDS011;918;50.796;6.772;2023-06-26T12:24:59;3.57;;;2.50;;
1837;SDS011;918;50.796;6.772;2023-06-26T12:27:24;4.30;;;2.20;;
1837;SDS011;918;50.796;6.772;2023-06-26T12:29:53;3.10;;;2.80;;
1837;SDS011;918;50.796;6.772;2023-06-26T12:32:20;2.60;;;2.40;;
1837;SDS011;918;50.796;6.772;2023-06-26T12:34:50;2.30;;;1.83;;
1837;SDS011;918;50.796;6.772;2023-06-26T12:37:16;2.00;;;1.73;;
1837;SDS011;918;50.796;6.772;2023-06-26T12:39:45;3.63;;;2.00;;
1837;SDS011;918;50.796;6.772;2023-06-26T12:42:23;2.40;;;1.90;;
1837;SDS011;918;50.796;6.772;2023-06-26T12:44:50;3.70;;;2.23;;
1837;SDS011;918;50.796;6.772;2023-06-26T12:47:16;4.30;;;2.03;;
1837;SDS011;918;50.796;6.772;2023-06-26T12:49:45;3.10;;;2.03;;
1837;SDS011;918;50.796;6.772;2023-06-26T12:52:15;3.87;;;1.90;;
1837;SDS011;918;50.796;6.772;2023-06-26T12:54:42;2.17;;;1.60;;
1837;SDS011;918;50.796;6.772;2023-06-26T12:57:08;3.47;;;2.00;;
1837;SDS011;918;50.796;6.772;2023-06-26T12:59:34;3.77;;;2.17;;
1837;SDS011;918;50.796;6.772;2023-06-26T13:02:01;4.23;;;1.90;;
1837;SDS011;918;50.796;6.772;2023-06-26T13:04:26;2.67;;;1.80;;
1837;SDS011;918;50.796;6.772;2023-06-26T13:06:51;2.63;;;1.90;;
1837;SDS011;918;50.796;6.772;2023-06-26T13:09:19;3.83;;;2.00;;
1837;SDS011;918;50.796;6.772;2023-06-26T13:11:45;1.60;;;1.50;;
1837;SDS011;918;50.796;6.772;2023-06-26T13:14:10;3.10;;;2.03;;
1837;SDS011;918;50.796;6.772;2023-06-26T13:16:36;4.83;;;1.63;;
1837;SDS011;918;50.796;6.772;2023-06-26T13:19:01;4.70;;;1.73;;
1837;SDS011;918;50.796;6.772;2023-06-26T13:21:27;3.07;;;1.80;;
1837;SDS011;918;50.796;6.772;2023-06-26T13:23:53;3.00;;;2.03;;
1837;SDS011;918;50.796;6.772;2023-06-26T13:26:19;3.60;;;1.67;;
1837;SDS011;918;50.796;6.772;2023-06-26T13:28:44;3.93;;;1.60;;
1837;SDS011;918;50.796;6.772;2023-06-26T13:31:10;3.43;;;1.90;;
1837;SDS011;918;50.796;6.772;2023-06-26T13:33:35;2.53;;;1.87;;
1837;SDS011;918;50.796;6.772;2023-06-26T13:36:00;4.07;;;1.70;;
1837;SDS011;918;50.796;6.772;2023-06-26T13:38:26;3.97;;;1.60;;
1837;SDS011;918;50.796;6.772;2023-06-26T13:40:52;4.80;;;2.07;;
1837;SDS011;918;50.796;6.772;2023-06-26T13:43:22;2.97;;;1.70;;
1837;SDS011;918;50.796;6.772;2023-06-26T13:45:48;3.93;;;1.90;;
1837;SDS011;918;50.796;6.772;2023-06-26T13:48:13;3.70;;;1.47;;
1837;SDS011;918;50.796;6.772;2023-06-26T13:50:39;3.33;;;1.40;;
1837;SDS011;918;50.796;6.772;2023-06-26T13:53:04;4.80;;;1.80;;
1837;SDS011;918;50.796;6.772;2023-06-26T13:55:30;1.60;;;1.50;;
1837;SDS011;918;50.796;6.772;2023-06-26T13:57:56;2.93;;;1.50;;
1837;SDS011;918;50.796;6.772;2023-06-26T14:00:21;1.77;;;1.67;;
1837;SDS011;918;50.796;6.772;2023-06-26T14:02:47;2.47;;;1.40;;
1837;SDS011;918;50.796;6.772;2023-06-26T14:05:12;2.50;;;1.50;;
1837;SDS011;918;50.796;6.772;2023-06-26T14:07:38;2.47;;;1.60;;
1837;SDS011;918;50.796;6.772;2023-06-26T14:10:03;6.00;;;1.80;;
1837;SDS011;918;50.796;6.772;2023-06-26T14:12:30;3.90;;;1.60;;
1837;SDS011;918;50.796;6.772;2023-06-26T14:14:56;2.73;;;1.70;;
1837;SDS011;918;50.796;6.772;2023-06-26T14:17:21;2.93;;;1.70;;
1837;SDS011;918;50.796;6.772;2023-06-26T14:19:49;5.70;;;1.80;;
1837;SDS011;918;50.796;6.772;2023-06-26T14:22:14;1.70;;;1.60;;
1837;SDS011;918;50.796;6.772;2023-06-26T14:24:40;2.50;;;1.97;;
1837;SDS011;918;50.796;6.772;2023-06-26T14:27:05;4.63;;;1.70;;
1837;SDS011;918;50.796;6.772;2023-06-26T14:29:30;2.20;;;1.70;;
1837;SDS011;918;50.796;6.772;2023-06-26T14:31:55;3.00;;;1.63;;
1837;SDS011;918;50.796;6.772;2023-06-26T14:34:21;2.33;;;1.30;;
1837;SDS011;918;50.796;6.772;2023-06-26T14:36:46;4.40;;;1.57;;
1837;SDS011;918;50.796;6.772;2023-06-26T14:39:11;1.70;;;1.60;;
1837;SDS011;918;50.796;6.772;2023-06-26T14:41:37;1.53;;;1.43;;
1837;SDS011;918;50.796;6.772;2023-06-26T14:44:02;1.63;;;1.53;;
1837;SDS011;918;50.796;6.772;2023-06-26T14:46:27;3.77;;;1.60;;
1837;SDS011;918;50.796;6.772;2023-06-26T14:48:52;2.60;;;1.63;;
1837;SDS011;918;50.796;6.772;2023-06-26T14:51:20;2.70;;;1.60;;
1837;SDS011;918;50.796;6.772;2023-06-26T14:53:45;1.90;;;1.53;;
1837;SDS011;918;50.796;6.772;2023-06-26T14:56:12;2.67;;;1.60;;
1837;SDS011;918;50.796;6.772;2023-06-26T14:58:37;5.53;;;2.00;;
1837;SDS011;918;50.796;6.772;2023-06-26T15:01:03;3.03;;;1.80;;
1837;SDS011;918;50.796;6.772;2023-06-26T15:03:28;2.30;;;1.70;;
1837;SDS011;918;50.796;6.772;2023-06-26T15:05:53;4.53;;;1.97;;
1837;SDS011;918;50.796;6.772;2023-06-26T15:08:18;2.30;;;1.90;;
1837;SDS011;918;50.796;6.772;2023-06-26T15:10:43;2.70;;;1.70;;
1837;SDS011;918;50.796;6.772;2023-06-26T15:13:09;2.50;;;2.03;;
1837;SDS011;918;50.796;6.772;2023-06-26T15:15:34;2.43;;;1.80;;
1837;SDS011;918;50.796;6.772;2023-06-26T15:17:59;4.17;;;2.20;;
1837;SDS011;918;50.796;6.772;2023-06-26T15:20:25;2.10;;;1.90;;
1837;SDS011;918;50.796;6.772;2023-06-26T15:22:50;3.10;;;1.83;;
1837;SDS011;918;50.796;6.772;2023-06-26T15:25:15;3.10;;;1.77;;
1837;SDS011;918;50.796;6.772;2023-06-26T15:27:40;2.13;;;1.50;;
1837;SDS011;918;50.796;6.772;2023-06-26T15:30:06;3.30;;;1.60;;
1837;SDS011;918;50.796;6.772;2023-06-26T15:32:32;3.57;;;1.87;;
1837;SDS011;918;50.796;6.772;2023-06-26T15:34:57;1.90;;;1.73;;
1837;SDS011;918;50.796;6.772;2023-06-26T15:37:22;2.07;;;1.63;;